sensor_id;sensor_type;location;lat;lon;timestamp;temperature;humidity
77523;SHT31;66637;-29.628;-49.938;2023-02-28T00:01:33;25.03;73.40
77523;SHT31;66637;-29.628;-49.938;2023-02-28T00:04:05;25.03;73.10
77523;SHT31;66637;-29.628;-49.938;2023-02-28T00:06:37;25.03;73.25
77523;SHT31;66637;-29.628;-49.938;2023-02-28T00:09:09;25.04;73.28
77523;SHT31;66637;-29.628;-49.938;2023-02-28T00:11:42;24.98;73.27
77523;SHT31;66637;-29.628;-49.938;2023-02-28T00:14:14;24.97;73.20
77523;SHT31;66637;-29.628;-49.938;2023-02-28T00:16:46;24.91;73.40
77523;SHT31;66637;-29.628;-49.938;2023-02-28T00:19:20;24.90;73.18
77523;SHT31;66637;-29.628;-49.938;2023-02-28T00:21:51;24.87;73.30
77523;SHT31;66637;-29.628;-49.938;2023-02-28T00:24:21;24.83;73.35
77523;SHT31;66637;-29.628;-49.938;2023-02-28T00:26:52;24.79;73.35
77523;SHT31;66637;-29.628;-49.938;2023-02-28T00:29:23;24.81;73.26
77523;SHT31;66637;-29.628;-49.938;2023-02-28T00:31:56;24.71;73.38
77523;SHT31;66637;-29.628;-49.938;2023-02-28T00:34:27;24.70;73.25
77523;SHT31;66637;-29.628;-49.938;2023-02-28T00:36:57;24.71;73.11
77523;SHT31;66637;-29.628;-49.938;2023-02-28T00:39:29;24.74;72.84
77523;SHT31;66637;-29.628;-49.938;2023-02-28T00:41:59;24.67;73.03
77523;SHT31;66637;-29.628;-49.938;2023-02-28T00:44:31;24.60;73.50
77523;SHT31;66637;-29.628;-49.938;2023-02-28T00:47:05;24.56;73.65
77523;SHT31;66637;-29.628;-49.938;2023-02-28T00:49:42;24.49;73.96
77523;SHT31;66637;-29.628;-49.938;2023-02-28T00:52:20;24.43;73.98
77523;SHT31;66637;-29.628;-49.938;2023-02-28T00:54:55;24.41;73.71
77523;SHT31;66637;-29.628;-49.938;2023-02-28T00:57:27;24.47;73.76
77523;SHT31;66637;-29.628;-49.938;2023-02-28T00:59:57;24.47;73.66
77523;SHT31;66637;-29.628;-49.938;2023-02-28T01:02:28;24.49;73.60
77523;SHT31;66637;-29.628;-49.938;2023-02-28T01:05:09;24.52;73.74
77523;SHT31;66637;-29.628;-49.938;2023-02-28T01:07:53;24.46;73.55
77523;SHT31;66637;-29.628;-49.938;2023-02-28T01:10:31;24.50;73.55
77523;SHT31;66637;-29.628;-49.938;2023-02-28T01:13:07;24.43;73.73
77523;SHT31;66637;-29.628;-49.938;2023-02-28T01:15:57;24.37;73.96
77523;SHT31;66637;-29.628;-49.938;2023-02-28T01:18:32;24.33;73.90
77523;SHT31;66637;-29.628;-49.938;2023-02-28T01:21:08;24.37;73.74
77523;SHT31;66637;-29.628;-49.938;2023-02-28T01:23:40;24.35;73.87
77523;SHT31;66637;-29.628;-49.938;2023-02-28T01:26:22;24.33;73.97
77523;SHT31;66637;-29.628;-49.938;2023-02-28T01:28:55;24.32;73.85
77523;SHT31;66637;-29.628;-49.938;2023-02-28T01:31:28;24.29;74.09
77523;SHT31;66637;-29.628;-49.938;2023-02-28T01:34:03;24.23;74.21
77523;SHT31;66637;-29.628;-49.938;2023-02-28T01:36:34;24.26;74.37
77523;SHT31;66637;-29.628;-49.938;2023-02-28T01:39:07;24.26;74.06
77523;SHT31;66637;-29.628;-49.938;2023-02-28T01:41:39;24.22;74.15
77523;SHT31;66637;-29.628;-49.938;2023-02-28T01:47:18;24.19;74.53
77523;SHT31;66637;-29.628;-49.938;2023-02-28T01:49:51;24.13;74.91
77523;SHT31;66637;-29.628;-49.938;2023-02-28T01:52:22;24.06;75.16
77523;SHT31;66637;-29.628;-49.938;2023-02-28T01:54:57;24.02;75.72
77523;SHT31;66637;-29.628;-49.938;2023-02-28T01:57:41;23.98;76.18
77523;SHT31;66637;-29.628;-49.938;2023-02-28T02:00:18;23.94;76.01
77523;SHT31;66637;-29.628;-49.938;2023-02-28T02:02:56;23.88;76.13
77523;SHT31;66637;-29.628;-49.938;2023-02-28T02:05:32;23.82;76.14
77523;SHT31;66637;-29.628;-49.938;2023-02-28T02:08:29;23.84;76.09
77523;SHT31;66637;-29.628;-49.938;2023-02-28T02:11:01;23.84;76.09
77523;SHT31;66637;-29.628;-49.938;2023-02-28T02:16:57;23.84;76.03
77523;SHT31;66637;-29.628;-49.938;2023-02-28T02:27:48;23.79;76.15
77523;SHT31;66637;-29.628;-49.938;2023-02-28T02:30:43;23.78;76.15
77523;SHT31;66637;-29.628;-49.938;2023-02-28T02:41:54;23.71;76.30
77523;SHT31;66637;-29.628;-49.938;2023-02-28T02:47:14;23.67;76.33
77523;SHT31;66637;-29.628;-49.938;2023-02-28T02:49:57;23.67;76.33
77523;SHT31;66637;-29.628;-49.938;2023-02-28T02:52:36;23.62;76.46
77523;SHT31;66637;-29.628;-49.938;2023-02-28T02:55:09;23.57;76.49
77523;SHT31;66637;-29.628;-49.938;2023-02-28T02:57:48;23.51;76.67
77523;SHT31;66637;-29.628;-49.938;2023-02-28T03:00:25;23.54;76.54
77523;SHT31;66637;-29.628;-49.938;2023-02-28T03:02:57;23.51;76.45
77523;SHT31;66637;-29.628;-49.938;2023-02-28T03:05:44;23.51;76.56
77523;SHT31;66637;-29.628;-49.938;2023-02-28T03:08:16;23.48;76.42
77523;SHT31;66637;-29.628;-49.938;2023-02-28T03:10:52;23.45;76.55
77523;SHT31;66637;-29.628;-49.938;2023-02-28T03:16:35;23.51;76.04
77523;SHT31;66637;-29.628;-49.938;2023-02-28T03:19:28;23.50;76.04
77523;SHT31;66637;-29.628;-49.938;2023-02-28T03:27:42;23.53;76.21
77523;SHT31;66637;-29.628;-49.938;2023-02-28T03:33:17;23.35;76.61
77523;SHT31;66637;-29.628;-49.938;2023-02-28T03:36:02;23.31;76.83
77523;SHT31;66637;-29.628;-49.938;2023-02-28T03:38:46;23.28;76.73
77523;SHT31;66637;-29.628;-49.938;2023-02-28T03:41:35;23.27;76.59
77523;SHT31;66637;-29.628;-49.938;2023-02-28T03:44:14;23.27;76.69
77523;SHT31;66637;-29.628;-49.938;2023-02-28T03:47:17;23.25;76.48
77523;SHT31;66637;-29.628;-49.938;2023-02-28T03:52:25;23.27;76.15
77523;SHT31;66637;-29.628;-49.938;2023-02-28T03:55:02;23.23;76.34
77523;SHT31;66637;-29.628;-49.938;2023-02-28T03:57:52;23.21;76.20
77523;SHT31;66637;-29.628;-49.938;2023-02-28T04:00:35;23.17;76.17
77523;SHT31;66637;-29.628;-49.938;2023-02-28T04:03:08;23.11;76.05
77523;SHT31;66637;-29.628;-49.938;2023-02-28T04:05:52;23.13;75.80
77523;SHT31;66637;-29.628;-49.938;2023-02-28T04:08:24;23.13;75.75
77523;SHT31;66637;-29.628;-49.938;2023-02-28T04:11:03;23.11;75.71
77523;SHT31;66637;-29.628;-49.938;2023-02-28T04:13:36;23.11;75.23
77523;SHT31;66637;-29.628;-49.938;2023-02-28T04:16:08;23.10;75.17
77523;SHT31;66637;-29.628;-49.938;2023-02-28T04:19:02;23.03;75.36
77523;SHT31;66637;-29.628;-49.938;2023-02-28T04:21:43;23.00;75.42
77523;SHT31;66637;-29.628;-49.938;2023-02-28T04:24:27;23.02;75.43
77523;SHT31;66637;-29.628;-49.938;2023-02-28T04:26:59;23.00;75.44
77523;SHT31;66637;-29.628;-49.938;2023-02-28T04:29:31;22.94;75.73
77523;SHT31;66637;-29.628;-49.938;2023-02-28T04:32:04;23.04;75.25
77523;SHT31;66637;-29.628;-49.938;2023-02-28T04:34:36;22.84;75.65
77523;SHT31;66637;-29.628;-49.938;2023-02-28T04:37:06;22.77;76.05
77523;SHT31;66637;-29.628;-49.938;2023-02-28T04:39:42;22.76;75.90
77523;SHT31;66637;-29.628;-49.938;2023-02-28T04:42:15;22.74;75.81
77523;SHT31;66637;-29.628;-49.938;2023-02-28T04:44:45;22.77;75.96
77523;SHT31;66637;-29.628;-49.938;2023-02-28T04:47:18;22.82;75.48
77523;SHT31;66637;-29.628;-49.938;2023-02-28T04:49:48;22.84;75.34
77523;SHT31;66637;-29.628;-49.938;2023-02-28T04:52:18;22.84;74.85
77523;SHT31;66637;-29.628;-49.938;2023-02-28T04:54:50;22.84;74.61
77523;SHT31;66637;-29.628;-49.938;2023-02-28T04:57:20;22.89;74.17
77523;SHT31;66637;-29.628;-49.938;2023-02-28T04:59:51;22.87;74.00
77523;SHT31;66637;-29.628;-49.938;2023-02-28T05:02:22;22.87;73.82
77523;SHT31;66637;-29.628;-49.938;2023-02-28T05:04:54;22.86;73.49
77523;SHT31;66637;-29.628;-49.938;2023-02-28T05:07:26;22.87;73.62
77523;SHT31;66637;-29.628;-49.938;2023-02-28T05:09:56;22.86;73.64
77523;SHT31;66637;-29.628;-49.938;2023-02-28T05:12:27;22.77;73.87
77523;SHT31;66637;-29.628;-49.938;2023-02-28T05:14:58;22.77;73.95
77523;SHT31;66637;-29.628;-49.938;2023-02-28T05:17:29;22.74;73.74
77523;SHT31;66637;-29.628;-49.938;2023-02-28T05:20:00;22.72;73.35
77523;SHT31;66637;-29.628;-49.938;2023-02-28T05:22:43;22.69;73.69
77523;SHT31;66637;-29.628;-49.938;2023-02-28T05:25:18;22.70;73.61
77523;SHT31;66637;-29.628;-49.938;2023-02-28T05:27:49;22.69;73.60
77523;SHT31;66637;-29.628;-49.938;2023-02-28T05:30:21;22.72;73.60
77523;SHT31;66637;-29.628;-49.938;2023-02-28T05:32:51;22.67;73.44
77523;SHT31;66637;-29.628;-49.938;2023-02-28T05:35:22;22.69;73.30
77523;SHT31;66637;-29.628;-49.938;2023-02-28T05:37:54;22.73;73.22
77523;SHT31;66637;-29.628;-49.938;2023-02-28T05:40:24;22.73;73.12
77523;SHT31;66637;-29.628;-49.938;2023-02-28T05:42:55;22.73;73.35
77523;SHT31;66637;-29.628;-49.938;2023-02-28T05:45:26;22.69;73.05
77523;SHT31;66637;-29.628;-49.938;2023-02-28T05:47:58;22.66;73.04
77523;SHT31;66637;-29.628;-49.938;2023-02-28T05:50:28;22.69;73.62
77523;SHT31;66637;-29.628;-49.938;2023-02-28T05:53:00;22.72;73.49
77523;SHT31;66637;-29.628;-49.938;2023-02-28T05:55:31;22.73;74.19
77523;SHT31;66637;-29.628;-49.938;2023-02-28T05:58:02;22.86;75.02
77523;SHT31;66637;-29.628;-49.938;2023-02-28T06:00:33;22.97;74.78
77523;SHT31;66637;-29.628;-49.938;2023-02-28T06:03:09;23.02;74.97
77523;SHT31;66637;-29.628;-49.938;2023-02-28T06:05:41;23.02;75.12
77523;SHT31;66637;-29.628;-49.938;2023-02-28T06:08:11;23.10;75.18
77523;SHT31;66637;-29.628;-49.938;2023-02-28T06:10:42;23.14;75.37
77523;SHT31;66637;-29.628;-49.938;2023-02-28T06:13:13;23.21;74.85
77523;SHT31;66637;-29.628;-49.938;2023-02-28T06:15:43;23.28;75.06
77523;SHT31;66637;-29.628;-49.938;2023-02-28T06:18:14;23.25;75.09
77523;SHT31;66637;-29.628;-49.938;2023-02-28T06:20:44;23.30;75.00
77523;SHT31;66637;-29.628;-49.938;2023-02-28T06:23:23;23.23;74.72
77523;SHT31;66637;-29.628;-49.938;2023-02-28T06:25:54;23.14;75.24
77523;SHT31;66637;-29.628;-49.938;2023-02-28T06:28:28;22.92;73.79
77523;SHT31;66637;-29.628;-49.938;2023-02-28T06:30:58;22.64;73.52
77523;SHT31;66637;-29.628;-49.938;2023-02-28T06:33:29;22.49;74.21
77523;SHT31;66637;-29.628;-49.938;2023-02-28T06:35:59;22.49;74.96
77523;SHT31;66637;-29.628;-49.938;2023-02-28T06:38:29;22.59;75.33
77523;SHT31;66637;-29.628;-49.938;2023-02-28T06:41:00;22.52;74.60
77523;SHT31;66637;-29.628;-49.938;2023-02-28T06:43:34;22.41;74.76
77523;SHT31;66637;-29.628;-49.938;2023-02-28T06:46:08;22.28;74.65
77523;SHT31;66637;-29.628;-49.938;2023-02-28T06:48:40;22.21;74.69
77523;SHT31;66637;-29.628;-49.938;2023-02-28T06:51:13;22.09;74.81
77523;SHT31;66637;-29.628;-49.938;2023-02-28T06:53:45;22.04;74.89
77523;SHT31;66637;-29.628;-49.938;2023-02-28T06:56:18;22.05;74.63
77523;SHT31;66637;-29.628;-49.938;2023-02-28T06:58:51;22.01;75.12
77523;SHT31;66637;-29.628;-49.938;2023-02-28T07:01:23;21.95;75.19
77523;SHT31;66637;-29.628;-49.938;2023-02-28T07:03:54;21.92;75.33
77523;SHT31;66637;-29.628;-49.938;2023-02-28T07:06:26;21.88;75.27
77523;SHT31;66637;-29.628;-49.938;2023-02-28T07:08:56;21.81;75.01
77523;SHT31;66637;-29.628;-49.938;2023-02-28T07:11:28;21.65;75.51
77523;SHT31;66637;-29.628;-49.938;2023-02-28T07:13:58;21.62;75.66
77523;SHT31;66637;-29.628;-49.938;2023-02-28T07:16:29;21.61;75.76
77523;SHT31;66637;-29.628;-49.938;2023-02-28T07:18:59;21.67;75.92
77523;SHT31;66637;-29.628;-49.938;2023-02-28T07:21:30;21.62;75.92
77523;SHT31;66637;-29.628;-49.938;2023-02-28T07:24:01;21.61;75.87
77523;SHT31;66637;-29.628;-49.938;2023-02-28T07:26:31;21.64;75.55
77523;SHT31;66637;-29.628;-49.938;2023-02-28T07:29:05;21.62;76.14
77523;SHT31;66637;-29.628;-49.938;2023-02-28T07:31:36;21.61;76.00
77523;SHT31;66637;-29.628;-49.938;2023-02-28T07:34:07;21.58;76.11
77523;SHT31;66637;-29.628;-49.938;2023-02-28T07:36:39;21.64;76.42
77523;SHT31;66637;-29.628;-49.938;2023-02-28T07:39:10;21.61;76.35
77523;SHT31;66637;-29.628;-49.938;2023-02-28T07:41:41;21.68;76.56
77523;SHT31;66637;-29.628;-49.938;2023-02-28T07:44:14;21.65;76.60
77523;SHT31;66637;-29.628;-49.938;2023-02-28T07:46:45;21.65;76.67
77523;SHT31;66637;-29.628;-49.938;2023-02-28T07:49:15;21.67;76.32
77523;SHT31;66637;-29.628;-49.938;2023-02-28T07:51:47;21.67;76.58
77523;SHT31;66637;-29.628;-49.938;2023-02-28T07:54:17;21.65;76.45
77523;SHT31;66637;-29.628;-49.938;2023-02-28T07:56:47;21.67;76.98
77523;SHT31;66637;-29.628;-49.938;2023-02-28T07:59:18;21.65;76.81
77523;SHT31;66637;-29.628;-49.938;2023-02-28T08:01:48;21.60;77.21
77523;SHT31;66637;-29.628;-49.938;2023-02-28T08:04:20;21.61;77.12
77523;SHT31;66637;-29.628;-49.938;2023-02-28T08:06:50;21.60;77.03
77523;SHT31;66637;-29.628;-49.938;2023-02-28T08:09:24;21.54;77.12
77523;SHT31;66637;-29.628;-49.938;2023-02-28T08:11:54;21.60;76.93
77523;SHT31;66637;-29.628;-49.938;2023-02-28T08:14:25;21.62;76.96
77523;SHT31;66637;-29.628;-49.938;2023-02-28T08:16:56;21.58;76.98
77523;SHT31;66637;-29.628;-49.938;2023-02-28T08:19:26;21.61;77.14
77523;SHT31;66637;-29.628;-49.938;2023-02-28T08:21:57;21.53;77.24
77523;SHT31;66637;-29.628;-49.938;2023-02-28T08:24:29;21.53;77.31
77523;SHT31;66637;-29.628;-49.938;2023-02-28T08:27:00;21.43;77.58
77523;SHT31;66637;-29.628;-49.938;2023-02-28T08:29:33;21.43;77.24
77523;SHT31;66637;-29.628;-49.938;2023-02-28T08:32:04;21.38;77.48
77523;SHT31;66637;-29.628;-49.938;2023-02-28T08:34:47;21.30;76.62
77523;SHT31;66637;-29.628;-49.938;2023-02-28T08:37:19;21.29;76.68
77523;SHT31;66637;-29.628;-49.938;2023-02-28T08:39:50;21.22;77.04
77523;SHT31;66637;-29.628;-49.938;2023-02-28T08:42:24;21.20;77.22
77523;SHT31;66637;-29.628;-49.938;2023-02-28T08:44:55;21.17;77.47
77523;SHT31;66637;-29.628;-49.938;2023-02-28T08:47:25;21.19;77.47
77523;SHT31;66637;-29.628;-49.938;2023-02-28T08:49:56;21.17;77.67
77523;SHT31;66637;-29.628;-49.938;2023-02-28T08:52:27;21.22;77.59
77523;SHT31;66637;-29.628;-49.938;2023-02-28T08:54:58;21.19;77.18
77523;SHT31;66637;-29.628;-49.938;2023-02-28T08:57:30;21.11;77.51
77523;SHT31;66637;-29.628;-49.938;2023-02-28T09:00:02;21.13;77.95
77523;SHT31;66637;-29.628;-49.938;2023-02-28T09:02:35;21.10;78.11
77523;SHT31;66637;-29.628;-49.938;2023-02-28T09:05:08;21.13;78.10
77523;SHT31;66637;-29.628;-49.938;2023-02-28T09:07:38;21.04;77.94
77523;SHT31;66637;-29.628;-49.938;2023-02-28T09:10:10;21.00;77.48
77523;SHT31;66637;-29.628;-49.938;2023-02-28T09:12:40;20.95;77.36
77523;SHT31;66637;-29.628;-49.938;2023-02-28T09:15:11;20.99;77.56
77523;SHT31;66637;-29.628;-49.938;2023-02-28T09:17:42;20.97;77.55
77523;SHT31;66637;-29.628;-49.938;2023-02-28T09:20:16;20.97;77.43
77523;SHT31;66637;-29.628;-49.938;2023-02-28T09:22:46;20.90;77.38
77523;SHT31;66637;-29.628;-49.938;2023-02-28T09:25:18;20.90;77.11
77523;SHT31;66637;-29.628;-49.938;2023-02-28T09:27:49;20.90;77.25
77523;SHT31;66637;-29.628;-49.938;2023-02-28T09:30:19;20.95;77.32
77523;SHT31;66637;-29.628;-49.938;2023-02-28T09:32:49;20.95;77.81
77523;SHT31;66637;-29.628;-49.938;2023-02-28T09:35:25;21.02;77.42
77523;SHT31;66637;-29.628;-49.938;2023-02-28T09:37:57;21.06;77.09
77523;SHT31;66637;-29.628;-49.938;2023-02-28T09:40:29;21.13;76.67
77523;SHT31;66637;-29.628;-49.938;2023-02-28T09:43:00;21.17;76.10
77523;SHT31;66637;-29.628;-49.938;2023-02-28T09:45:42;21.24;76.19
77523;SHT31;66637;-29.628;-49.938;2023-02-28T09:48:17;21.19;75.91
77523;SHT31;66637;-29.628;-49.938;2023-02-28T09:50:52;21.17;76.15
77523;SHT31;66637;-29.628;-49.938;2023-02-28T09:53:29;21.22;75.89
77523;SHT31;66637;-29.628;-49.938;2023-02-28T09:56:18;21.27;75.89
77523;SHT31;66637;-29.628;-49.938;2023-02-28T10:04:40;21.24;76.06
77523;SHT31;66637;-29.628;-49.938;2023-02-28T10:09:58;21.33;75.95
77523;SHT31;66637;-29.628;-49.938;2023-02-28T10:12:32;21.41;75.94
77523;SHT31;66637;-29.628;-49.938;2023-02-28T10:15:05;21.46;75.88
77523;SHT31;66637;-29.628;-49.938;2023-02-28T10:17:41;21.48;75.66
77523;SHT31;66637;-29.628;-49.938;2023-02-28T10:20:24;21.53;75.71
77523;SHT31;66637;-29.628;-49.938;2023-02-28T10:25:53;21.64;75.70
77523;SHT31;66637;-29.628;-49.938;2023-02-28T10:28:28;21.73;75.57
77523;SHT31;66637;-29.628;-49.938;2023-02-28T10:30:58;21.80;75.16
77523;SHT31;66637;-29.628;-49.938;2023-02-28T10:33:35;21.95;74.93
77523;SHT31;66637;-29.628;-49.938;2023-02-28T10:36:14;22.09;74.54
77523;SHT31;66637;-29.628;-49.938;2023-02-28T10:38:48;22.28;74.27
77523;SHT31;66637;-29.628;-49.938;2023-02-28T10:41:31;22.48;73.79
77523;SHT31;66637;-29.628;-49.938;2023-02-28T10:46:48;23.98;70.42
77523;SHT31;66637;-29.628;-49.938;2023-02-28T10:49:22;25.10;66.52
77523;SHT31;66637;-29.628;-49.938;2023-02-28T10:51:57;25.82;64.35
77523;SHT31;66637;-29.628;-49.938;2023-02-28T10:54:36;26.22;63.69
77523;SHT31;66637;-29.628;-49.938;2023-02-28T10:57:18;26.70;62.34
77523;SHT31;66637;-29.628;-49.938;2023-02-28T11:00:24;26.97;61.31
77523;SHT31;66637;-29.628;-49.938;2023-02-28T11:02:58;27.42;59.70
77523;SHT31;66637;-29.628;-49.938;2023-02-28T11:05:35;27.74;58.07
77523;SHT31;66637;-29.628;-49.938;2023-02-28T11:08:15;27.82;58.46
77523;SHT31;66637;-29.628;-49.938;2023-02-28T11:10:53;28.10;56.45
77523;SHT31;66637;-29.628;-49.938;2023-02-28T11:13:35;28.43;57.93
77523;SHT31;66637;-29.628;-49.938;2023-02-28T11:16:10;28.76;54.64
77523;SHT31;66637;-29.628;-49.938;2023-02-28T11:18:53;28.94;53.58
77523;SHT31;66637;-29.628;-49.938;2023-02-28T11:21:31;28.95;52.41
77523;SHT31;66637;-29.628;-49.938;2023-02-28T11:24:40;28.60;54.20
77523;SHT31;66637;-29.628;-49.938;2023-02-28T11:30:02;28.74;52.59
77523;SHT31;66637;-29.628;-49.938;2023-02-28T11:32:34;28.91;52.09
77523;SHT31;66637;-29.628;-49.938;2023-02-28T11:37:41;29.80;50.48
77523;SHT31;66637;-29.628;-49.938;2023-02-28T11:40:21;30.07;48.80
77523;SHT31;66637;-29.628;-49.938;2023-02-28T11:43:06;30.17;52.90
77523;SHT31;66637;-29.628;-49.938;2023-02-28T11:48:25;31.02;54.01
77523;SHT31;66637;-29.628;-49.938;2023-02-28T11:51:35;30.51;53.88
77523;SHT31;66637;-29.628;-49.938;2023-02-28T12:03:17;30.99;55.59
77523;SHT31;66637;-29.628;-49.938;2023-02-28T12:09:28;31.25;54.91
77523;SHT31;66637;-29.628;-49.938;2023-02-28T12:23:54;31.22;53.50
77523;SHT31;66637;-29.628;-49.938;2023-02-28T12:28:46;31.47;50.11
77523;SHT31;66637;-29.628;-49.938;2023-02-28T12:31:47;31.95;53.68
77523;SHT31;66637;-29.628;-49.938;2023-02-28T12:34:25;31.94;53.61
77523;SHT31;66637;-29.628;-49.938;2023-02-28T12:37:04;31.69;54.47
77523;SHT31;66637;-29.628;-49.938;2023-02-28T12:39:43;31.46;54.82
77523;SHT31;66637;-29.628;-49.938;2023-02-28T12:42:19;31.71;56.36
77523;SHT31;66637;-29.628;-49.938;2023-02-28T12:45:34;31.53;54.98
77523;SHT31;66637;-29.628;-49.938;2023-02-28T12:48:03;31.29;54.61
77523;SHT31;66637;-29.628;-49.938;2023-02-28T12:50:35;31.37;54.88
77523;SHT31;66637;-29.628;-49.938;2023-02-28T12:53:28;31.13;54.53
77523;SHT31;66637;-29.628;-49.938;2023-02-28T13:10:47;31.36;55.59
77523;SHT31;66637;-29.628;-49.938;2023-02-28T13:13:29;31.56;55.94
77523;SHT31;66637;-29.628;-49.938;2023-02-28T13:16:10;31.69;56.13
77523;SHT31;66637;-29.628;-49.938;2023-02-28T13:18:46;31.60;57.05
77523;SHT31;66637;-29.628;-49.938;2023-02-28T13:21:29;31.80;56.73
77523;SHT31;66637;-29.628;-49.938;2023-02-28T13:24:02;31.76;57.63
77523;SHT31;66637;-29.628;-49.938;2023-02-28T13:32:33;31.53;58.29
77523;SHT31;66637;-29.628;-49.938;2023-02-28T13:37:43;31.51;59.04
77523;SHT31;66637;-29.628;-49.938;2023-02-28T13:40:28;31.57;58.14
77523;SHT31;66637;-29.628;-49.938;2023-02-28T13:43:00;31.56;58.34
77523;SHT31;66637;-29.628;-49.938;2023-02-28T13:45:31;31.71;59.04
77523;SHT31;66637;-29.628;-49.938;2023-02-28T13:48:25;31.88;58.33
77523;SHT31;66637;-29.628;-49.938;2023-02-28T13:50:57;31.80;58.47
77523;SHT31;66637;-29.628;-49.938;2023-02-28T13:53:59;32.08;58.34
77523;SHT31;66637;-29.628;-49.938;2023-02-28T14:02:50;31.50;58.83
77523;SHT31;66637;-29.628;-49.938;2023-02-28T14:05:25;31.44;58.44
77523;SHT31;66637;-29.628;-49.938;2023-02-28T14:08:15;31.50;58.26
77523;SHT31;66637;-29.628;-49.938;2023-02-28T14:10:49;31.70;59.48
77523;SHT31;66637;-29.628;-49.938;2023-02-28T14:13:44;32.00;58.50
77523;SHT31;66637;-29.628;-49.938;2023-02-28T14:16:23;31.93;59.37
77523;SHT31;66637;-29.628;-49.938;2023-02-28T14:19:03;31.71;59.99
77523;SHT31;66637;-29.628;-49.938;2023-02-28T14:21:39;31.69;60.14
77523;SHT31;66637;-29.628;-49.938;2023-02-28T14:36:13;31.83;60.16
77523;SHT31;66637;-29.628;-49.938;2023-02-28T14:39:01;31.76;60.73
77523;SHT31;66637;-29.628;-49.938;2023-02-28T14:41:41;31.95;60.34
77523;SHT31;66637;-29.628;-49.938;2023-02-28T14:44:18;31.81;60.41
77523;SHT31;66637;-29.628;-49.938;2023-02-28T14:47:13;31.80;60.44
77523;SHT31;66637;-29.628;-49.938;2023-02-28T14:49:47;31.63;60.33
77523;SHT31;66637;-29.628;-49.938;2023-02-28T14:52:21;31.63;60.55
77523;SHT31;66637;-29.628;-49.938;2023-02-28T14:55:10;31.66;61.52
77523;SHT31;66637;-29.628;-49.938;2023-02-28T14:57:55;31.90;60.30
77523;SHT31;66637;-29.628;-49.938;2023-02-28T15:00:29;31.91;60.13
77523;SHT31;66637;-29.628;-49.938;2023-02-28T15:03:18;31.98;60.05
77523;SHT31;66637;-29.628;-49.938;2023-02-28T15:05:58;31.94;60.68
77523;SHT31;66637;-29.628;-49.938;2023-02-28T15:08:30;31.46;60.41
77523;SHT31;66637;-29.628;-49.938;2023-02-28T15:11:08;31.57;60.10
77523;SHT31;66637;-29.628;-49.938;2023-02-28T15:13:50;31.59;60.24
77523;SHT31;66637;-29.628;-49.938;2023-02-28T15:16:30;31.53;61.00
77523;SHT31;66637;-29.628;-49.938;2023-02-28T15:21:45;31.78;59.89
77523;SHT31;66637;-29.628;-49.938;2023-02-28T15:24:31;31.85;60.48
77523;SHT31;66637;-29.628;-49.938;2023-02-28T15:27:11;31.50;59.70
77523;SHT31;66637;-29.628;-49.938;2023-02-28T15:29:48;31.34;60.99
77523;SHT31;66637;-29.628;-49.938;2023-02-28T15:35:19;31.57;60.86
77523;SHT31;66637;-29.628;-49.938;2023-02-28T15:38:41;31.59;61.17
77523;SHT31;66637;-29.628;-49.938;2023-02-28T15:40:54;31.54;61.25
77523;SHT31;66637;-29.628;-49.938;2023-02-28T15:43:34;31.44;60.51
77523;SHT31;66637;-29.628;-49.938;2023-02-28T15:46:11;31.57;60.53
77523;SHT31;66637;-29.628;-49.938;2023-02-28T15:48:54;31.69;59.73
77523;SHT31;66637;-29.628;-49.938;2023-02-28T15:51:38;31.39;60.50
77523;SHT31;66637;-29.628;-49.938;2023-02-28T15:54:16;31.51;61.26
77523;SHT31;66637;-29.628;-49.938;2023-02-28T15:56:57;31.47;60.87
77523;SHT31;66637;-29.628;-49.938;2023-02-28T15:59:31;31.44;61.03
77523;SHT31;66637;-29.628;-49.938;2023-02-28T16:02:17;31.42;60.28
77523;SHT31;66637;-29.628;-49.938;2023-02-28T16:05:13;31.54;61.22
77523;SHT31;66637;-29.628;-49.938;2023-02-28T16:07:48;31.26;61.82
77523;SHT31;66637;-29.628;-49.938;2023-02-28T16:10:19;31.09;61.93
77523;SHT31;66637;-29.628;-49.938;2023-02-28T16:12:52;30.93;62.04
77523;SHT31;66637;-29.628;-49.938;2023-02-28T16:15:28;30.98;62.32
77523;SHT31;66637;-29.628;-49.938;2023-02-28T16:18:02;30.90;61.60
77523;SHT31;66637;-29.628;-49.938;2023-02-28T16:20:34;31.10;60.78
77523;SHT31;66637;-29.628;-49.938;2023-02-28T16:23:05;30.95;61.41
77523;SHT31;66637;-29.628;-49.938;2023-02-28T16:25:42;30.81;61.92
77523;SHT31;66637;-29.628;-49.938;2023-02-28T16:28:30;31.09;61.19
77523;SHT31;66637;-29.628;-49.938;2023-02-28T16:31:04;31.00;61.13
77523;SHT31;66637;-29.628;-49.938;2023-02-28T16:33:37;30.95;61.56
77523;SHT31;66637;-29.628;-49.938;2023-02-28T16:36:29;31.00;61.67
77523;SHT31;66637;-29.628;-49.938;2023-02-28T16:39:00;30.76;61.95
77523;SHT31;66637;-29.628;-49.938;2023-02-28T16:41:34;30.67;61.48
77523;SHT31;66637;-29.628;-49.938;2023-02-28T16:44:14;30.67;61.59
77523;SHT31;66637;-29.628;-49.938;2023-02-28T16:46:48;30.95;61.64
77523;SHT31;66637;-29.628;-49.938;2023-02-28T16:49:18;30.85;61.16
77523;SHT31;66637;-29.628;-49.938;2023-02-28T16:51:49;30.75;61.82
77523;SHT31;66637;-29.628;-49.938;2023-02-28T16:54:20;30.86;61.67
77523;SHT31;66637;-29.628;-49.938;2023-02-28T16:56:52;30.85;61.44
77523;SHT31;66637;-29.628;-49.938;2023-02-28T16:59:24;30.89;61.54
77523;SHT31;66637;-29.628;-49.938;2023-02-28T17:01:56;30.81;61.20
77523;SHT31;66637;-29.628;-49.938;2023-02-28T17:04:28;30.88;61.52
77523;SHT31;66637;-29.628;-49.938;2023-02-28T17:06:59;31.02;61.03
77523;SHT31;66637;-29.628;-49.938;2023-02-28T17:09:30;31.02;61.36
77523;SHT31;66637;-29.628;-49.938;2023-02-28T17:12:11;30.62;61.42
77523;SHT31;66637;-29.628;-49.938;2023-02-28T17:14:42;30.52;61.60
77523;SHT31;66637;-29.628;-49.938;2023-02-28T17:17:21;30.68;61.54
77523;SHT31;66637;-29.628;-49.938;2023-02-28T17:19:53;30.83;60.77
77523;SHT31;66637;-29.628;-49.938;2023-02-28T17:22:24;30.78;59.98
77523;SHT31;66637;-29.628;-49.938;2023-02-28T17:24:55;30.72;60.58
77523;SHT31;66637;-29.628;-49.938;2023-02-28T17:27:29;30.74;60.79
77523;SHT31;66637;-29.628;-49.938;2023-02-28T17:29:59;30.89;61.16
77523;SHT31;66637;-29.628;-49.938;2023-02-28T17:32:32;30.79;61.34
77523;SHT31;66637;-29.628;-49.938;2023-02-28T17:35:05;30.65;61.52
77523;SHT31;66637;-29.628;-49.938;2023-02-28T17:37:37;30.85;61.36
77523;SHT31;66637;-29.628;-49.938;2023-02-28T17:40:17;31.00;61.98
77523;SHT31;66637;-29.628;-49.938;2023-02-28T17:42:49;30.82;61.56
77523;SHT31;66637;-29.628;-49.938;2023-02-28T17:45:22;30.51;62.08
77523;SHT31;66637;-29.628;-49.938;2023-02-28T17:47:54;30.52;61.97
77523;SHT31;66637;-29.628;-49.938;2023-02-28T17:50:25;30.39;61.54
77523;SHT31;66637;-29.628;-49.938;2023-02-28T17:52:57;30.44;61.91
77523;SHT31;66637;-29.628;-49.938;2023-02-28T17:55:28;30.41;61.51